createdAt,value
2022-08-01T00:00:09.492Z,59.27
2022-08-01T00:02:40.254Z,59.02
2022-08-01T00:05:08.862Z,59.01
2022-08-01T00:07:36.124Z,59.22
2022-08-01T00:10:05.346Z,59.57
2022-08-01T00:12:31.917Z,59.26
2022-08-01T00:14:58.523Z,59.38
2022-08-01T00:17:25.144Z,59.58
2022-08-01T00:19:51.691Z,59.71
2022-08-01T00:22:18.317Z,59.24
2022-08-01T00:24:44.972Z,59.73
2022-08-01T00:27:11.627Z,59.28
2022-08-01T00:30:04.673Z,59.80
2022-08-01T00:32:25.186Z,59.98
2022-08-01T00:34:51.898Z,59.54
2022-08-01T00:37:18.601Z,59.71
2022-08-01T00:39:45.220Z,60.02
2022-08-01T00:42:13.623Z,59.79
2022-08-01T00:44:40.987Z,60.05
2022-08-01T00:47:08.524Z,60.28
2022-08-01T00:49:35.803Z,60.07
2022-08-01T00:52:05.630Z,60.67
2022-08-01T00:54:33.134Z,60.58
2022-08-01T00:56:59.908Z,60.96
2022-08-01T00:59:27.617Z,60.63
2022-08-01T01:01:55.391Z,61.02
2022-08-01T01:04:22.767Z,60.96
2022-08-01T01:07:14.414Z,61.10
2022-08-01T01:09:51.682Z,60.87
2022-08-01T01:12:38.765Z,60.63
2022-08-01T01:15:18.544Z,60.62
2022-08-01T01:18:02.970Z,60.37
2022-08-01T01:20:37.007Z,60.94
2022-08-01T01:23:27.595Z,60.56
2022-08-01T01:26:15.431Z,60.32
2022-08-01T01:29:28.022Z,60.53
2022-08-01T01:32:03.742Z,60.56
2022-08-01T01:34:35.336Z,60.71
2022-08-01T01:37:05.610Z,60.42
2022-08-01T01:39:34.914Z,60.63
2022-08-01T01:42:02.799Z,60.71
2022-08-01T01:44:30.901Z,60.24
2022-08-01T01:46:58.734Z,60.76
2022-08-01T01:49:28.127Z,60.47
2022-08-01T01:52:02.013Z,60.45
2022-08-01T01:54:33.998Z,60.78
2022-08-01T01:57:02.935Z,60.74
2022-08-01T01:59:32.940Z,60.26
2022-08-01T02:02:08.732Z,60.39
2022-08-01T02:04:45.940Z,60.17
2022-08-01T02:07:18.520Z,60.25
2022-08-01T02:09:48.405Z,60.51
2022-08-01T02:12:17.798Z,60.49
2022-08-01T02:14:47.806Z,60.83
2022-08-01T02:17:18.286Z,60.98
2022-08-01T02:19:45.723Z,61.11
2022-08-01T02:22:18.023Z,61.07
2022-08-01T02:24:53.209Z,60.90
2022-08-01T02:27:26.923Z,61.07
2022-08-01T02:29:55.450Z,61.40
2022-08-01T02:32:28.141Z,61.50
2022-08-01T02:34:58.198Z,61.66
2022-08-01T02:37:27.424Z,61.67
2022-08-01T02:39:55.795Z,61.46
2022-08-01T02:42:26.616Z,61.39
2022-08-01T02:44:55.027Z,61.70
2022-08-01T02:47:23.919Z,61.18
2022-08-01T02:49:53.905Z,61.40
2022-08-01T02:52:22.323Z,61.48
2022-08-01T02:54:52.311Z,61.87
2022-08-01T02:57:21.325Z,61.81
2022-08-01T02:59:50.059Z,61.85
2022-08-01T03:02:18.233Z,61.79
2022-08-01T03:04:46.161Z,62.00
2022-08-01T03:07:14.267Z,61.97
2022-08-01T03:09:44.593Z,62.01
2022-08-01T03:12:15.498Z,61.86
2022-08-01T03:14:44.123Z,62.16
2022-08-01T03:17:12.692Z,61.98
2022-08-01T03:19:40.424Z,62.13
2022-08-01T03:22:11.211Z,62.18
2022-08-01T03:24:40.583Z,62.38
2022-08-01T03:27:08.816Z,62.74
2022-08-01T03:29:37.040Z,62.84
2022-08-01T03:32:05.068Z,62.77
2022-08-01T03:34:32.103Z,63.04
2022-08-01T03:37:13.570Z,63.32
2022-08-01T03:39:53.695Z,63.28
2022-08-01T03:42:24.609Z,63.60
2022-08-01T03:44:58.123Z,64.10
2022-08-01T03:47:30.665Z,64.05
2022-08-01T03:49:58.738Z,64.13
2022-08-01T03:52:28.437Z,63.98
2022-08-01T03:54:57.417Z,64.29
2022-08-01T03:57:36.668Z,64.39
2022-08-01T04:00:08.651Z,64.38
2022-08-01T04:02:36.041Z,64.06
2022-08-01T04:05:04.014Z,64.01
2022-08-01T04:07:33.311Z,64.02
2022-08-01T04:09:59.930Z,63.80
2022-08-01T04:12:26.503Z,63.51
2022-08-01T04:14:53.072Z,63.69
2022-08-01T04:17:19.909Z,63.68
2022-08-01T04:19:47.144Z,63.54
2022-08-01T04:22:16.073Z,63.50
2022-08-01T04:24:45.301Z,63.35
2022-08-01T04:27:15.569Z,63.23
2022-08-01T04:29:43.278Z,63.02
2022-08-01T04:32:13.746Z,63.24
2022-08-01T04:34:42.842Z,63.16
2022-08-01T04:37:12.295Z,62.67
2022-08-01T04:39:50.754Z,62.86
2022-08-01T04:42:18.599Z,62.69
2022-08-01T04:45:00.008Z,62.74
2022-08-01T04:47:27.975Z,63.05
2022-08-01T04:49:57.890Z,62.95
2022-08-01T04:52:24.924Z,62.65
2022-08-01T04:54:51.613Z,61.84
2022-08-01T04:57:18.248Z,61.01
2022-08-01T04:59:45.155Z,60.68
2022-08-01T05:02:15.587Z,60.43
2022-08-01T05:04:43.327Z,60.07
2022-08-01T05:07:10.460Z,59.58
2022-08-01T05:09:38.278Z,59.33
2022-08-01T05:12:07.077Z,58.50
2022-08-01T05:14:34.714Z,58.02
2022-08-01T05:17:05.927Z,58.44
2022-08-01T05:19:35.522Z,59.21
2022-08-01T05:22:05.869Z,60.16
2022-08-01T05:24:34.349Z,60.87
2022-08-01T05:27:03.344Z,61.04
2022-08-01T05:29:30.548Z,61.85
2022-08-01T05:31:57.614Z,62.65
2022-08-01T05:34:24.564Z,63.20
2022-08-01T05:36:55.296Z,63.36
2022-08-01T05:39:23.559Z,63.31
2022-08-01T05:41:50.452Z,62.75
2022-08-01T05:44:17.057Z,62.67
2022-08-01T05:46:44.121Z,63.15
2022-08-01T05:49:10.775Z,63.25
2022-08-01T05:51:37.515Z,63.20
2022-08-01T05:54:04.235Z,63.54
2022-08-01T05:56:32.446Z,63.40
2022-08-01T05:58:59.471Z,63.20
2022-08-01T06:01:26.140Z,62.94
2022-08-01T06:03:55.156Z,62.44
2022-08-01T06:06:25.157Z,62.45
2022-08-01T06:08:52.988Z,62.86
2022-08-01T06:11:19.805Z,62.57
2022-08-01T06:13:48.575Z,61.53
2022-08-01T06:16:16.038Z,62.06
2022-08-01T06:18:42.646Z,62.02
2022-08-01T06:21:09.279Z,62.22
2022-08-01T06:23:35.906Z,61.81
2022-08-01T06:26:02.547Z,62.11
2022-08-01T06:28:29.535Z,61.78
2022-08-01T06:30:56.788Z,61.95
2022-08-01T06:33:23.446Z,62.03
2022-08-01T06:35:50.085Z,62.35
2022-08-01T06:38:16.646Z,61.87
2022-08-01T06:40:43.319Z,61.94
2022-08-01T06:43:12.309Z,61.60
2022-08-01T06:45:40.690Z,61.39
2022-08-01T06:48:07.398Z,60.37
2022-08-01T06:50:36.718Z,60.65
2022-08-01T06:53:03.675Z,60.47
2022-08-01T06:55:30.391Z,60.48
2022-08-01T06:57:56.980Z,60.24
2022-08-01T07:00:25.533Z,60.41
2022-08-01T07:02:54.390Z,60.47
2022-08-01T07:05:21.387Z,60.04
2022-08-01T07:07:47.980Z,59.66
2022-08-01T07:10:14.654Z,59.90
2022-08-01T07:12:42.081Z,59.74
2022-08-01T07:15:11.468Z,59.53
2022-08-01T07:17:43.486Z,59.32
2022-08-01T07:20:12.219Z,58.92
2022-08-01T07:22:40.842Z,59.25
2022-08-01T07:25:08.676Z,58.66
2022-08-01T07:27:35.961Z,58.77
2022-08-01T07:30:03.115Z,57.56
2022-08-01T07:32:30.390Z,57.29
2022-08-01T07:34:57.187Z,57.21
2022-08-01T07:37:48.162Z,57.08
2022-08-01T07:40:12.050Z,56.24
2022-08-01T07:42:39.146Z,55.37
2022-08-01T07:45:06.036Z,55.88
2022-08-01T07:47:32.612Z,55.36
2022-08-01T07:50:04.142Z,55.62
2022-08-01T07:52:31.395Z,55.57
2022-08-01T07:54:58.841Z,55.44
2022-08-01T07:57:25.761Z,55.35
2022-08-01T07:59:52.773Z,55.27
2022-08-01T08:02:19.561Z,54.83
2022-08-01T08:04:49.135Z,55.37
2022-08-01T08:07:16.199Z,55.68
2022-08-01T08:09:42.904Z,55.31
2022-08-01T08:12:10.389Z,55.69
2022-08-01T08:14:37.560Z,55.54
2022-08-01T08:17:04.892Z,55.73
2022-08-01T08:19:38.380Z,55.90
2022-08-01T08:22:07.773Z,54.98
2022-08-01T08:24:35.076Z,55.43
2022-08-01T08:27:03.098Z,55.10
2022-08-01T08:29:33.536Z,55.32
2022-08-01T08:32:01.887Z,55.02
2022-08-01T08:34:29.647Z,54.37
2022-08-01T08:36:57.433Z,54.95
2022-08-01T08:39:26.173Z,55.72
2022-08-01T08:41:52.754Z,55.44
2022-08-01T08:44:21.229Z,55.37
2022-08-01T08:46:53.364Z,54.78
2022-08-01T08:49:25.940Z,54.96
2022-08-01T08:51:54.187Z,55.16
2022-08-01T08:54:30.978Z,54.93
2022-08-01T08:56:59.855Z,54.68
2022-08-01T08:59:27.135Z,54.50
2022-08-01T09:01:54.111Z,55.35
2022-08-01T09:04:23.958Z,56.36
2022-08-01T09:06:54.059Z,56.37
2022-08-01T09:09:20.887Z,55.79
2022-08-01T09:11:57.635Z,55.85
2022-08-01T09:14:27.361Z,55.40
2022-08-01T09:17:09.829Z,55.27
2022-08-01T09:19:45.119Z,55.29
2022-08-01T09:22:15.056Z,56.30
2022-08-01T09:24:42.416Z,55.42
2022-08-01T09:27:22.434Z,54.91
2022-08-01T09:30:00.632Z,54.64
2022-08-01T09:32:35.983Z,55.03
2022-08-01T09:35:32.084Z,53.92
2022-08-01T09:38:23.139Z,54.28
2022-08-01T09:40:54.843Z,54.10
2022-08-01T09:43:24.710Z,53.32
2022-08-01T09:45:52.976Z,53.53
2022-08-01T09:48:27.971Z,53.21
2022-08-01T09:51:04.556Z,53.00
2022-08-01T09:53:52.488Z,53.19
2022-08-01T09:56:22.242Z,53.75
2022-08-01T09:58:59.458Z,53.37
2022-08-01T10:01:37.305Z,53.21
2022-08-01T10:04:10.933Z,52.89
2022-08-01T10:06:39.744Z,53.20
2022-08-01T10:09:07.644Z,54.01
2022-08-01T10:11:37.754Z,53.98
2022-08-01T10:14:07.316Z,54.46
2022-08-01T10:16:38.761Z,54.95
2022-08-01T10:19:11.209Z,55.27
2022-08-01T10:21:58.135Z,55.29
2022-08-01T10:24:28.454Z,56.07
2022-08-01T10:27:09.669Z,56.07
2022-08-01T10:30:16.766Z,56.56
2022-08-01T10:32:50.627Z,57.02
2022-08-01T10:35:45.916Z,57.25
2022-08-01T10:38:06.167Z,56.78
2022-08-01T10:40:38.395Z,56.33
2022-08-01T10:43:06.557Z,56.14
2022-08-01T10:45:34.387Z,55.76
2022-08-01T10:48:20.835Z,55.87
2022-08-01T10:50:53.754Z,56.16
2022-08-01T10:53:24.079Z,55.52
2022-08-01T10:55:59.317Z,55.31
2022-08-01T10:58:27.854Z,54.37
2022-08-01T11:01:30.027Z,54.24
2022-08-01T11:04:16.609Z,53.70
2022-08-01T11:06:47.434Z,52.86
2022-08-01T11:09:16.459Z,52.99
2022-08-01T11:12:23.805Z,53.11
2022-08-01T11:15:00.611Z,52.58
2022-08-01T11:17:42.276Z,52.51
2022-08-01T11:20:09.536Z,52.48
2022-08-01T11:23:07.124Z,53.54
2022-08-01T11:26:05.865Z,54.44
2022-08-01T11:28:34.929Z,55.17
2022-08-01T11:31:11.121Z,55.28
2022-08-01T11:33:46.702Z,55.49
2022-08-01T11:36:14.648Z,55.54
2022-08-01T11:38:47.684Z,55.58
2022-08-01T11:41:38.090Z,55.14
2022-08-01T11:44:26.383Z,54.23
2022-08-01T11:47:09.285Z,54.14
2022-08-01T11:49:48.955Z,53.71
2022-08-01T11:52:46.578Z,53.22
2022-08-01T11:55:16.553Z,52.67
2022-08-01T11:57:43.470Z,51.87
2022-08-01T12:00:16.842Z,50.08
2022-08-01T12:02:46.701Z,49.81
2022-08-01T12:05:17.390Z,49.56
2022-08-01T12:07:45.982Z,49.32
2022-08-01T12:10:17.784Z,48.49
2022-08-01T12:12:44.212Z,49.59
2022-08-01T12:15:11.467Z,48.87
2022-08-01T12:17:40.365Z,49.21
2022-08-01T12:20:16.853Z,47.90
2022-08-01T12:22:44.446Z,47.71
2022-08-01T12:25:11.407Z,48.17
2022-08-01T12:27:39.387Z,47.80
2022-08-01T12:30:17.497Z,47.16
2022-08-01T12:32:47.304Z,46.46
2022-08-01T12:35:18.236Z,46.88
2022-08-01T12:37:50.628Z,47.25
2022-08-01T12:40:20.415Z,47.11
2022-08-01T12:42:52.911Z,47.71
2022-08-01T12:45:26.086Z,47.57
2022-08-01T12:47:54.701Z,48.25
2022-08-01T12:50:24.743Z,48.61
2022-08-01T12:52:52.052Z,48.80
2022-08-01T12:55:21.171Z,49.22
2022-08-01T12:57:53.928Z,49.31
2022-08-01T13:00:25.310Z,49.28
2022-08-01T13:03:07.440Z,49.60
2022-08-01T13:05:45.744Z,49.83
2022-08-01T13:08:17.563Z,49.66
2022-08-01T13:10:44.634Z,49.63
2022-08-01T13:13:22.243Z,49.33
2022-08-01T13:16:05.306Z,49.65
2022-08-01T13:18:33.561Z,49.47
2022-08-01T13:21:13.581Z,50.06
2022-08-01T13:24:02.798Z,49.82
2022-08-01T13:26:49.844Z,50.24
2022-08-01T13:29:18.531Z,50.26
2022-08-01T13:31:45.647Z,50.16
2022-08-01T13:34:12.678Z,50.19
2022-08-01T13:36:44.217Z,50.28
2022-08-01T13:39:33.733Z,49.58
2022-08-01T13:42:00.280Z,49.59
2022-08-01T13:44:26.879Z,49.54
2022-08-01T13:46:53.660Z,50.01
2022-08-01T13:49:22.778Z,50.06
2022-08-01T13:51:51.606Z,50.24
2022-08-01T13:54:19.061Z,50.18
2022-08-01T13:56:45.740Z,50.49
2022-08-01T13:59:12.779Z,50.55
2022-08-01T14:01:39.454Z,50.29
2022-08-01T14:04:06.241Z,50.31
2022-08-01T14:06:33.426Z,49.53
2022-08-01T14:09:00.027Z,49.17
2022-08-01T14:11:30.454Z,48.86
2022-08-01T14:14:04.728Z,48.91
2022-08-01T14:16:35.305Z,48.34
2022-08-01T14:19:04.055Z,48.39
2022-08-01T14:21:30.702Z,48.46
2022-08-01T14:23:57.219Z,48.66
2022-08-01T14:26:23.821Z,48.82
2022-08-01T14:28:50.377Z,49.02
2022-08-01T14:31:16.920Z,48.99
2022-08-01T14:33:43.498Z,49.04
2022-08-01T14:36:30.827Z,49.30
2022-08-01T14:39:00.503Z,49.34
2022-08-01T14:41:30.940Z,49.58
2022-08-01T14:43:58.162Z,49.76
2022-08-01T14:46:24.762Z,50.06
2022-08-01T14:48:51.667Z,50.18
2022-08-01T14:51:18.360Z,50.25
2022-08-01T14:53:47.036Z,49.92
2022-08-01T14:56:18.403Z,49.87
2022-08-01T14:58:45.259Z,49.35
2022-08-01T15:01:12.086Z,49.61
2022-08-01T15:03:38.901Z,49.61
2022-08-01T15:06:07.301Z,49.51
2022-08-01T15:08:34.130Z,49.82
2022-08-01T15:11:02.112Z,50.37
2022-08-01T15:13:32.039Z,50.32
2022-08-01T15:16:00.005Z,50.73
2022-08-01T15:18:28.830Z,50.86
2022-08-01T15:20:56.200Z,50.95
2022-08-01T15:23:22.743Z,50.81
2022-08-01T15:25:49.907Z,50.82
2022-08-01T15:28:16.529Z,50.64
2022-08-01T15:30:43.380Z,50.49
2022-08-01T15:33:09.910Z,50.23
2022-08-01T15:35:36.676Z,50.39
2022-08-01T15:38:03.774Z,50.44
2022-08-01T15:40:30.444Z,50.65
2022-08-01T15:42:57.045Z,50.71
2022-08-01T15:48:10.841Z,51.19
2022-08-01T15:50:39.277Z,51.55
2022-08-01T15:53:07.519Z,51.58
2022-08-01T15:55:40.790Z,51.54
2022-08-01T15:58:07.814Z,51.84
2022-08-01T16:00:39.341Z,52.19
2022-08-01T16:03:10.675Z,52.14
2022-08-01T16:05:43.123Z,52.33
2022-08-01T16:08:12.284Z,52.00
2022-08-01T16:10:39.349Z,52.12
2022-08-01T16:13:07.374Z,51.87
2022-08-01T16:15:36.435Z,51.65
2022-08-01T16:18:04.168Z,51.60
2022-08-01T16:20:30.713Z,51.76
2022-08-01T16:22:57.328Z,52.20
2022-08-01T16:25:24.035Z,52.21
2022-08-01T16:27:50.570Z,51.95
2022-08-01T16:30:17.230Z,51.85
2022-08-01T16:32:45.306Z,52.05
2022-08-01T16:35:24.598Z,51.69
2022-08-01T16:38:03.311Z,51.54
2022-08-01T16:40:29.912Z,51.52
2022-08-01T16:42:58.540Z,51.43
2022-08-01T16:45:25.279Z,51.39
2022-08-01T16:47:52.119Z,50.96
2022-08-01T16:50:19.039Z,50.73
2022-08-01T16:52:54.659Z,50.74
2022-08-01T16:55:23.260Z,50.91
2022-08-01T16:57:51.392Z,50.52
2022-08-01T17:00:21.387Z,50.12
2022-08-01T17:02:49.365Z,47.49
2022-08-01T17:05:16.047Z,46.09
2022-08-01T17:07:42.585Z,43.70
2022-08-01T17:10:10.034Z,41.71
2022-08-01T17:12:36.776Z,40.48
2022-08-01T17:15:03.941Z,38.84
2022-08-01T17:17:30.510Z,38.91
2022-08-01T17:19:57.196Z,37.89
2022-08-01T17:22:23.774Z,37.34
2022-08-01T17:24:53.511Z,38.70
2022-08-01T17:27:20.462Z,39.99
2022-08-01T17:29:47.117Z,41.38
2022-08-01T17:32:14.432Z,42.53
2022-08-01T17:34:42.445Z,43.46
2022-08-01T17:37:09.692Z,44.63
2022-08-01T17:39:39.198Z,45.63
2022-08-01T17:42:06.915Z,46.68
2022-08-01T17:44:33.499Z,47.58
2022-08-01T17:47:00.105Z,48.08
2022-08-01T17:49:45.523Z,48.83
2022-08-01T17:52:13.361Z,49.25
2022-08-01T17:54:39.996Z,49.55
2022-08-01T17:57:08.314Z,49.91
2022-08-01T17:59:35.266Z,50.07
2022-08-01T18:02:04.459Z,50.18
2022-08-01T18:04:31.391Z,50.59
2022-08-01T18:07:00.912Z,50.91
2022-08-01T18:09:32.550Z,51.14
2022-08-01T18:12:01.989Z,51.05
2022-08-01T18:14:34.744Z,50.91
2022-08-01T18:17:11.174Z,51.10
2022-08-01T18:19:38.846Z,51.14
2022-08-01T18:22:05.949Z,51.66
2022-08-01T18:24:42.233Z,51.81
2022-08-01T18:27:09.136Z,51.84
2022-08-01T18:29:47.434Z,51.92
2022-08-01T18:32:15.252Z,52.15
2022-08-01T18:34:41.840Z,52.41
2022-08-01T18:37:08.903Z,52.27
2022-08-01T18:39:35.843Z,52.46
2022-08-01T18:42:02.728Z,52.54
2022-08-01T18:44:30.103Z,52.83
2022-08-01T18:46:56.739Z,52.86
2022-08-01T18:49:23.478Z,53.09
2022-08-01T18:51:50.231Z,53.43
2022-08-01T18:54:17.169Z,53.50
2022-08-01T18:56:45.159Z,53.85
2022-08-01T18:59:12.052Z,53.88
2022-08-01T19:01:39.671Z,54.11
2022-08-01T19:04:07.399Z,54.32
2022-08-01T19:06:34.232Z,54.81
2022-08-01T19:09:02.453Z,54.82
2022-08-01T19:11:31.013Z,54.97
2022-08-01T19:13:58.204Z,55.12
2022-08-01T19:16:25.985Z,55.39
2022-08-01T19:18:52.555Z,55.40
2022-08-01T19:21:19.575Z,55.56
2022-08-01T19:24:04.618Z,55.62
2022-08-01T19:26:33.680Z,55.52
2022-08-01T19:29:14.126Z,55.60
2022-08-01T19:31:44.401Z,55.84
2022-08-01T19:34:14.912Z,55.76
2022-08-01T19:36:44.559Z,55.92
2022-08-01T19:39:11.397Z,55.99
2022-08-01T19:41:40.696Z,56.09
2022-08-01T19:44:07.919Z,56.20
2022-08-01T19:46:34.618Z,56.36
2022-08-01T19:49:01.248Z,56.35
2022-08-01T19:51:33.396Z,56.80
2022-08-01T19:54:04.886Z,56.88
2022-08-01T19:56:39.647Z,56.97
2022-08-01T19:59:10.173Z,56.97
2022-08-01T20:01:37.224Z,57.47
2022-08-01T20:04:04.907Z,57.56
2022-08-01T20:06:32.409Z,57.75
2022-08-01T20:08:59.775Z,57.40
2022-08-01T20:11:26.655Z,57.74
2022-08-01T20:13:56.305Z,58.07
2022-08-01T20:16:28.433Z,58.02
2022-08-01T20:18:56.015Z,57.93
2022-08-01T20:21:25.220Z,58.31
2022-08-01T20:23:53.422Z,58.12
2022-08-01T20:26:31.096Z,58.67
2022-08-01T20:28:57.981Z,58.71
2022-08-01T20:31:43.260Z,58.78
2022-08-01T20:34:15.882Z,58.76
2022-08-01T20:36:54.546Z,59.07
2022-08-01T20:39:24.069Z,58.85
2022-08-01T20:41:59.725Z,59.06
2022-08-01T20:44:27.739Z,58.98
2022-08-01T20:46:54.598Z,59.21
2022-08-01T20:49:22.750Z,59.12
2022-08-01T20:51:50.774Z,59.22
2022-08-01T20:54:17.420Z,59.61
2022-08-01T20:56:43.902Z,59.49
2022-08-01T20:59:39.936Z,59.38
2022-08-01T21:02:47.730Z,59.38
2022-08-01T21:05:24.874Z,59.30
2022-08-01T21:07:54.145Z,59.40
2022-08-01T21:10:24.702Z,59.40
2022-08-01T21:13:03.252Z,59.29
2022-08-01T21:15:30.306Z,59.32
2022-08-01T21:18:15.879Z,59.73
2022-08-01T21:20:43.919Z,59.21
2022-08-01T21:23:29.171Z,59.32
2022-08-01T21:25:58.856Z,60.04
2022-08-01T21:28:27.001Z,59.56
2022-08-01T21:30:58.538Z,59.84
2022-08-01T21:33:28.863Z,59.74
2022-08-01T21:36:01.256Z,60.19
2022-08-01T21:38:32.660Z,59.93
2022-08-01T21:41:04.177Z,60.17
2022-08-01T21:43:33.324Z,60.32
2022-08-01T21:46:01.138Z,60.34
2022-08-01T21:48:30.194Z,60.30
2022-08-01T21:51:15.059Z,60.61
2022-08-01T21:53:47.558Z,60.45
2022-08-01T21:56:21.466Z,60.49
2022-08-01T21:59:12.484Z,60.69
2022-08-01T22:02:08.555Z,60.64
2022-08-01T22:04:44.513Z,60.74
2022-08-01T22:07:16.085Z,60.92
2022-08-01T22:09:48.163Z,61.09
2022-08-01T22:12:18.281Z,60.72
2022-08-01T22:14:48.721Z,61.01
2022-08-01T22:17:22.761Z,61.49
2022-08-01T22:19:53.978Z,61.39
2022-08-01T22:22:50.349Z,61.75
2022-08-01T22:25:12.125Z,61.72
2022-08-01T22:28:05.651Z,61.88
2022-08-01T22:30:28.535Z,62.35
2022-08-01T22:33:08.070Z,62.38
2022-08-01T22:35:48.427Z,62.21
2022-08-01T22:38:18.131Z,62.72
2022-08-01T22:40:53.853Z,62.71
2022-08-01T22:43:39.220Z,62.88
2022-08-01T22:46:21.147Z,63.02
2022-08-01T22:48:59.498Z,62.99
2022-08-01T22:51:34.205Z,63.18
2022-08-01T22:54:11.530Z,63.20
2022-08-01T22:56:47.126Z,63.60
2022-08-01T22:59:23.681Z,63.96
2022-08-01T23:01:51.679Z,64.05
2022-08-01T23:04:35.298Z,63.92
2022-08-01T23:07:06.069Z,64.26
2022-08-01T23:09:52.920Z,64.56
2022-08-01T23:12:22.840Z,64.59
2022-08-01T23:14:52.813Z,64.54
2022-08-01T23:17:27.796Z,65.25
2022-08-01T23:20:04.699Z,64.94
2022-08-01T23:22:34.826Z,64.99
2022-08-01T23:25:06.214Z,65.16
2022-08-01T23:28:04.251Z,65.11
2022-08-01T23:30:29.988Z,65.49
2022-08-01T23:32:57.254Z,65.81
2022-08-01T23:35:24.555Z,65.62
2022-08-01T23:37:52.040Z,65.79
2022-08-01T23:40:19.228Z,65.99
2022-08-01T23:42:46.066Z,66.27
2022-08-01T23:45:12.756Z,66.12
2022-08-01T23:47:39.600Z,66.20
2022-08-01T23:50:07.813Z,66.46
2022-08-01T23:52:41.951Z,66.83
2022-08-01T23:55:16.576Z,67.02
2022-08-01T23:57:43.572Z,67.01
